sensor_id;sensor_type;location;lat;lon;timestamp;P1;durP1;ratioP1;P2;durP2;ratioP2
32748;SDS011;19119;52.474;13.710;2023-04-01T00:01:32;2.58;;;1.30;;
32748;SDS011;19119;52.474;13.710;2023-04-01T00:03:58;2.92;;;1.30;;
32748;SDS011;19119;52.474;13.710;2023-04-01T00:06:26;3.10;;;0.93;;
32748;SDS011;19119;52.474;13.710;2023-04-01T00:08:53;1.80;;;1.17;;
32748;SDS011;19119;52.474;13.710;2023-04-01T00:11:18;2.15;;;1.00;;
32748;SDS011;19119;52.474;13.710;2023-04-01T00:13:44;2.58;;;1.08;;
32748;SDS011;19119;52.474;13.710;2023-04-01T00:16:10;3.13;;;1.00;;
32748;SDS011;19119;52.474;13.710;2023-04-01T00:18:36;3.63;;;1.15;;
32748;SDS011;19119;52.474;13.710;2023-04-01T00:21:01;4.25;;;1.27;;
32748;SDS011;19119;52.474;13.710;2023-04-01T00:23:27;2.08;;;1.10;;
32748;SDS011;19119;52.474;13.710;2023-04-01T00:25:53;4.03;;;1.30;;
32748;SDS011;19119;52.474;13.710;2023-04-01T00:28:18;2.20;;;1.25;;
32748;SDS011;19119;52.474;13.710;2023-04-01T00:30:45;3.28;;;1.10;;
32748;SDS011;19119;52.474;13.710;2023-04-01T00:33:11;4.30;;;1.48;;
32748;SDS011;19119;52.474;13.710;2023-04-01T00:35:37;3.13;;;1.20;;
32748;SDS011;19119;52.474;13.710;2023-04-01T00:38:03;3.35;;;1.20;;
32748;SDS011;19119;52.474;13.710;2023-04-01T00:40:40;5.03;;;1.17;;
32748;SDS011;19119;52.474;13.710;2023-04-01T00:43:11;5.22;;;1.38;;
32748;SDS011;19119;52.474;13.710;2023-04-01T00:45:46;3.30;;;1.48;;
32748;SDS011;19119;52.474;13.710;2023-04-01T00:48:15;3.15;;;1.60;;
32748;SDS011;19119;52.474;13.710;2023-04-01T00:50:50;5.07;;;1.45;;
32748;SDS011;19119;52.474;13.710;2023-04-01T00:53:21;2.55;;;1.42;;
32748;SDS011;19119;52.474;13.710;2023-04-01T00:55:50;5.45;;;1.60;;
32748;SDS011;19119;52.474;13.710;2023-04-01T00:58:23;7.10;;;1.77;;
32748;SDS011;19119;52.474;13.710;2023-04-01T01:00:50;3.00;;;1.65;;
32748;SDS011;19119;52.474;13.710;2023-04-01T01:03:17;7.25;;;1.75;;
32748;SDS011;19119;52.474;13.710;2023-04-01T01:06:02;3.10;;;1.73;;
32748;SDS011;19119;52.474;13.710;2023-04-01T01:09:10;4.05;;;1.70;;
32748;SDS011;19119;52.474;13.710;2023-04-01T01:11:48;5.90;;;1.63;;
32748;SDS011;19119;52.474;13.710;2023-04-01T01:14:27;5.80;;;1.83;;
32748;SDS011;19119;52.474;13.710;2023-04-01T01:28:11;4.78;;;2.30;;
32748;SDS011;19119;52.474;13.710;2023-04-01T01:33:59;6.45;;;2.30;;
32748;SDS011;19119;52.474;13.710;2023-04-01T01:36:28;4.93;;;1.92;;
32748;SDS011;19119;52.474;13.710;2023-04-01T01:38:59;6.00;;;2.72;;
32748;SDS011;19119;52.474;13.710;2023-04-01T01:41:27;4.75;;;2.17;;
32748;SDS011;19119;52.474;13.710;2023-04-01T01:43:55;5.80;;;2.63;;
32748;SDS011;19119;52.474;13.710;2023-04-01T01:46:22;5.20;;;2.38;;
32748;SDS011;19119;52.474;13.710;2023-04-01T01:48:51;4.78;;;2.00;;
32748;SDS011;19119;52.474;13.710;2023-04-01T01:51:18;7.32;;;2.33;;
32748;SDS011;19119;52.474;13.710;2023-04-01T01:53:46;4.15;;;2.00;;
32748;SDS011;19119;52.474;13.710;2023-04-01T01:56:11;6.10;;;2.67;;
32748;SDS011;19119;52.474;13.710;2023-04-01T01:58:40;6.35;;;2.38;;
32748;SDS011;19119;52.474;13.710;2023-04-01T02:01:11;8.98;;;2.40;;
32748;SDS011;19119;52.474;13.710;2023-04-01T02:03:42;6.60;;;2.40;;
32748;SDS011;19119;52.474;13.710;2023-04-01T02:06:11;5.20;;;2.65;;
32748;SDS011;19119;52.474;13.710;2023-04-01T02:08:57;5.78;;;2.83;;
32748;SDS011;19119;52.474;13.710;2023-04-01T02:11:38;5.10;;;2.33;;
32748;SDS011;19119;52.474;13.710;2023-04-01T02:14:19;6.85;;;2.63;;
32748;SDS011;19119;52.474;13.710;2023-04-01T02:16:49;7.50;;;2.97;;
32748;SDS011;19119;52.474;13.710;2023-04-01T02:21:47;4.30;;;2.30;;
32748;SDS011;19119;52.474;13.710;2023-04-01T02:26:47;6.80;;;2.70;;
32748;SDS011;19119;52.474;13.710;2023-04-01T02:29:15;7.60;;;3.13;;
32748;SDS011;19119;52.474;13.710;2023-04-01T02:31:44;4.95;;;2.47;;
32748;SDS011;19119;52.474;13.710;2023-04-01T02:34:10;7.07;;;2.42;;
32748;SDS011;19119;52.474;13.710;2023-04-01T02:36:36;7.43;;;3.00;;
32748;SDS011;19119;52.474;13.710;2023-04-01T02:39:02;6.78;;;2.88;;
32748;SDS011;19119;52.474;13.710;2023-04-01T02:41:30;5.80;;;2.60;;
32748;SDS011;19119;52.474;13.710;2023-04-01T02:43:55;4.60;;;2.30;;
32748;SDS011;19119;52.474;13.710;2023-04-01T02:46:23;6.85;;;2.63;;
32748;SDS011;19119;52.474;13.710;2023-04-01T02:48:49;6.95;;;2.80;;
32748;SDS011;19119;52.474;13.710;2023-04-01T02:51:15;5.22;;;2.53;;
32748;SDS011;19119;52.474;13.710;2023-04-01T02:53:40;6.78;;;2.70;;
32748;SDS011;19119;52.474;13.710;2023-04-01T02:56:06;6.45;;;3.13;;
32748;SDS011;19119;52.474;13.710;2023-04-01T02:58:31;5.47;;;2.63;;
32748;SDS011;19119;52.474;13.710;2023-04-01T03:00:57;6.25;;;2.58;;
32748;SDS011;19119;52.474;13.710;2023-04-01T03:03:22;7.70;;;2.97;;
32748;SDS011;19119;52.474;13.710;2023-04-01T03:05:48;6.60;;;2.60;;
32748;SDS011;19119;52.474;13.710;2023-04-01T03:08:13;7.85;;;2.97;;
32748;SDS011;19119;52.474;13.710;2023-04-01T03:10:39;6.20;;;2.85;;
32748;SDS011;19119;52.474;13.710;2023-04-01T03:13:04;6.75;;;3.35;;
32748;SDS011;19119;52.474;13.710;2023-04-01T03:15:31;5.55;;;2.97;;
32748;SDS011;19119;52.474;13.710;2023-04-01T03:17:56;5.88;;;3.17;;
32748;SDS011;19119;52.474;13.710;2023-04-01T03:20:22;8.18;;;2.60;;
32748;SDS011;19119;52.474;13.710;2023-04-01T03:22:47;9.05;;;3.63;;
32748;SDS011;19119;52.474;13.710;2023-04-01T03:25:13;6.53;;;2.67;;
32748;SDS011;19119;52.474;13.710;2023-04-01T03:27:39;7.80;;;3.15;;
32748;SDS011;19119;52.474;13.710;2023-04-01T03:30:04;8.60;;;4.05;;
32748;SDS011;19119;52.474;13.710;2023-04-01T03:32:31;10.35;;;3.42;;
32748;SDS011;19119;52.474;13.710;2023-04-01T03:34:57;6.07;;;3.13;;
32748;SDS011;19119;52.474;13.710;2023-04-01T03:37:23;8.63;;;3.22;;
32748;SDS011;19119;52.474;13.710;2023-04-01T03:39:49;12.48;;;3.65;;
32748;SDS011;19119;52.474;13.710;2023-04-01T03:42:14;8.50;;;3.25;;
32748;SDS011;19119;52.474;13.710;2023-04-01T03:44:40;9.68;;;3.15;;
32748;SDS011;19119;52.474;13.710;2023-04-01T03:47:05;8.60;;;3.45;;
32748;SDS011;19119;52.474;13.710;2023-04-01T03:49:31;7.03;;;3.22;;
32748;SDS011;19119;52.474;13.710;2023-04-01T03:51:57;6.38;;;2.88;;
32748;SDS011;19119;52.474;13.710;2023-04-01T03:54:23;8.73;;;3.50;;
32748;SDS011;19119;52.474;13.710;2023-04-01T03:56:49;7.72;;;4.05;;
32748;SDS011;19119;52.474;13.710;2023-04-01T03:59:14;9.57;;;3.30;;
32748;SDS011;19119;52.474;13.710;2023-04-01T04:01:40;13.77;;;3.60;;
32748;SDS011;19119;52.474;13.710;2023-04-01T04:04:06;6.25;;;2.97;;
32748;SDS011;19119;52.474;13.710;2023-04-01T04:06:32;10.25;;;3.28;;
32748;SDS011;19119;52.474;13.710;2023-04-01T04:08:58;6.60;;;2.97;;
32748;SDS011;19119;52.474;13.710;2023-04-01T04:11:24;7.90;;;3.22;;
32748;SDS011;19119;52.474;13.710;2023-04-01T04:13:50;6.00;;;2.83;;
32748;SDS011;19119;52.474;13.710;2023-04-01T04:16:17;7.38;;;2.80;;
32748;SDS011;19119;52.474;13.710;2023-04-01T04:18:44;6.97;;;3.35;;
32748;SDS011;19119;52.474;13.710;2023-04-01T04:21:11;8.15;;;3.03;;
32748;SDS011;19119;52.474;13.710;2023-04-01T04:23:38;10.48;;;3.97;;
32748;SDS011;19119;52.474;13.710;2023-04-01T04:26:06;6.35;;;3.63;;
32748;SDS011;19119;52.474;13.710;2023-04-01T04:28:32;8.48;;;3.75;;
32748;SDS011;19119;52.474;13.710;2023-04-01T04:30:58;6.95;;;3.22;;
32748;SDS011;19119;52.474;13.710;2023-04-01T04:33:24;7.40;;;3.38;;
32748;SDS011;19119;52.474;13.710;2023-04-01T04:35:50;8.25;;;3.30;;
32748;SDS011;19119;52.474;13.710;2023-04-01T04:38:19;9.27;;;3.30;;
32748;SDS011;19119;52.474;13.710;2023-04-01T04:40:44;7.53;;;3.00;;
32748;SDS011;19119;52.474;13.710;2023-04-01T04:43:10;7.13;;;3.30;;
32748;SDS011;19119;52.474;13.710;2023-04-01T04:45:37;9.98;;;3.50;;
32748;SDS011;19119;52.474;13.710;2023-04-01T04:48:02;11.55;;;3.88;;
32748;SDS011;19119;52.474;13.710;2023-04-01T04:50:28;7.38;;;3.63;;
32748;SDS011;19119;52.474;13.710;2023-04-01T04:52:54;6.18;;;2.92;;
32748;SDS011;19119;52.474;13.710;2023-04-01T04:55:19;10.02;;;3.30;;
32748;SDS011;19119;52.474;13.710;2023-04-01T04:57:45;8.32;;;3.45;;
32748;SDS011;19119;52.474;13.710;2023-04-01T05:00:11;10.93;;;3.80;;
32748;SDS011;19119;52.474;13.710;2023-04-01T05:02:37;10.60;;;3.90;;
32748;SDS011;19119;52.474;13.710;2023-04-01T05:05:02;8.65;;;3.25;;
32748;SDS011;19119;52.474;13.710;2023-04-01T05:07:29;7.18;;;3.35;;
32748;SDS011;19119;52.474;13.710;2023-04-01T05:09:54;9.55;;;3.53;;
32748;SDS011;19119;52.474;13.710;2023-04-01T05:12:20;9.48;;;3.35;;
32748;SDS011;19119;52.474;13.710;2023-04-01T05:14:45;8.75;;;3.10;;
32748;SDS011;19119;52.474;13.710;2023-04-01T05:17:12;9.73;;;3.22;;
32748;SDS011;19119;52.474;13.710;2023-04-01T05:19:37;10.15;;;3.22;;
32748;SDS011;19119;52.474;13.710;2023-04-01T05:22:03;8.32;;;3.08;;
32748;SDS011;19119;52.474;13.710;2023-04-01T05:24:30;7.22;;;2.97;;
32748;SDS011;19119;52.474;13.710;2023-04-01T05:26:55;6.22;;;2.70;;
32748;SDS011;19119;52.474;13.710;2023-04-01T05:29:22;6.10;;;2.35;;
32748;SDS011;19119;52.474;13.710;2023-04-01T05:31:48;6.03;;;2.60;;
32748;SDS011;19119;52.474;13.710;2023-04-01T05:34:14;7.57;;;2.55;;
32748;SDS011;19119;52.474;13.710;2023-04-01T05:36:39;10.30;;;2.92;;
32748;SDS011;19119;52.474;13.710;2023-04-01T05:39:06;8.80;;;3.15;;
32748;SDS011;19119;52.474;13.710;2023-04-01T05:41:34;5.60;;;2.78;;
32748;SDS011;19119;52.474;13.710;2023-04-01T05:44:00;8.48;;;3.42;;
32748;SDS011;19119;52.474;13.710;2023-04-01T05:46:26;6.80;;;2.95;;
32748;SDS011;19119;52.474;13.710;2023-04-01T05:48:51;5.55;;;2.70;;
32748;SDS011;19119;52.474;13.710;2023-04-01T05:51:17;6.68;;;2.30;;
32748;SDS011;19119;52.474;13.710;2023-04-01T05:53:43;6.65;;;3.00;;
32748;SDS011;19119;52.474;13.710;2023-04-01T05:56:08;7.50;;;2.42;;
32748;SDS011;19119;52.474;13.710;2023-04-01T05:58:34;10.13;;;2.90;;
32748;SDS011;19119;52.474;13.710;2023-04-01T06:01:02;6.40;;;3.42;;
32748;SDS011;19119;52.474;13.710;2023-04-01T06:03:28;11.02;;;2.58;;
32748;SDS011;19119;52.474;13.710;2023-04-01T06:05:54;8.52;;;2.88;;
32748;SDS011;19119;52.474;13.710;2023-04-01T06:08:20;6.60;;;2.90;;
32748;SDS011;19119;52.474;13.710;2023-04-01T06:19:16;10.27;;;3.65;;
32748;SDS011;19119;52.474;13.710;2023-04-01T06:22:11;7.18;;;3.22;;
32748;SDS011;19119;52.474;13.710;2023-04-01T06:30:41;9.57;;;3.58;;
32748;SDS011;19119;52.474;13.710;2023-04-01T06:36:10;15.73;;;5.70;;
32748;SDS011;19119;52.474;13.710;2023-04-01T06:47:36;15.95;;;5.63;;
32748;SDS011;19119;52.474;13.710;2023-04-01T06:50:01;10.35;;;4.65;;
32748;SDS011;19119;52.474;13.710;2023-04-01T06:53:00;9.63;;;5.22;;
32748;SDS011;19119;52.474;13.710;2023-04-01T06:55:41;9.05;;;3.60;;
32748;SDS011;19119;52.474;13.710;2023-04-01T06:58:23;7.75;;;3.65;;
32748;SDS011;19119;52.474;13.710;2023-04-01T07:00:53;5.95;;;3.15;;
32748;SDS011;19119;52.474;13.710;2023-04-01T07:06:06;8.55;;;3.45;;
32748;SDS011;19119;52.474;13.710;2023-04-01T07:08:50;9.02;;;3.15;;
32748;SDS011;19119;52.474;13.710;2023-04-01T07:11:33;6.82;;;2.70;;
32748;SDS011;19119;52.474;13.710;2023-04-01T07:14:01;5.03;;;2.08;;
32748;SDS011;19119;52.474;13.710;2023-04-01T07:16:36;5.60;;;3.17;;
32748;SDS011;19119;52.474;13.710;2023-04-01T07:19:18;4.07;;;2.45;;
32748;SDS011;19119;52.474;13.710;2023-04-01T07:24:31;7.05;;;2.70;;
32748;SDS011;19119;52.474;13.710;2023-04-01T07:27:00;4.97;;;2.70;;
32748;SDS011;19119;52.474;13.710;2023-04-01T07:29:26;6.70;;;2.70;;
32748;SDS011;19119;52.474;13.710;2023-04-01T07:32:02;5.90;;;3.00;;
32748;SDS011;19119;52.474;13.710;2023-04-01T07:37:35;5.50;;;2.90;;
32748;SDS011;19119;52.474;13.710;2023-04-01T07:45:34;6.13;;;3.30;;
32748;SDS011;19119;52.474;13.710;2023-04-01T07:50:34;5.13;;;2.50;;
32748;SDS011;19119;52.474;13.710;2023-04-01T07:53:15;10.73;;;3.28;;
32748;SDS011;19119;52.474;13.710;2023-04-01T07:58:23;7.45;;;3.28;;
32748;SDS011;19119;52.474;13.710;2023-04-01T08:00:53;6.18;;;3.08;;
32748;SDS011;19119;52.474;13.710;2023-04-01T08:03:38;6.03;;;2.85;;
32748;SDS011;19119;52.474;13.710;2023-04-01T08:06:19;5.93;;;2.95;;
32748;SDS011;19119;52.474;13.710;2023-04-01T08:17:16;4.00;;;1.92;;
32748;SDS011;19119;52.474;13.710;2023-04-01T08:22:29;3.35;;;2.05;;
32748;SDS011;19119;52.474;13.710;2023-04-01T08:25:25;8.00;;;2.90;;
32748;SDS011;19119;52.474;13.710;2023-04-01T08:30:47;9.52;;;4.13;;
32748;SDS011;19119;52.474;13.710;2023-04-01T08:33:33;8.68;;;3.30;;
32748;SDS011;19119;52.474;13.710;2023-04-01T08:36:08;9.95;;;4.13;;
32748;SDS011;19119;52.474;13.710;2023-04-01T08:38:38;10.02;;;4.32;;
32748;SDS011;19119;52.474;13.710;2023-04-01T08:47:09;7.72;;;2.72;;
32748;SDS011;19119;52.474;13.710;2023-04-01T09:00:49;4.22;;;2.05;;
32748;SDS011;19119;52.474;13.710;2023-04-01T09:03:29;5.00;;;2.08;;
32748;SDS011;19119;52.474;13.710;2023-04-01T09:08:52;4.70;;;2.30;;
32748;SDS011;19119;52.474;13.710;2023-04-01T09:17:37;4.85;;;2.60;;
32748;SDS011;19119;52.474;13.710;2023-04-01T09:29:34;5.80;;;3.08;;
32748;SDS011;19119;52.474;13.710;2023-04-01T09:35:20;5.90;;;3.50;;
32748;SDS011;19119;52.474;13.710;2023-04-01T09:38:00;5.75;;;3.08;;
32748;SDS011;19119;52.474;13.710;2023-04-01T09:40:54;5.65;;;3.22;;
32748;SDS011;19119;52.474;13.710;2023-04-01T09:43:22;5.80;;;2.80;;
32748;SDS011;19119;52.474;13.710;2023-04-01T09:54:24;8.50;;;4.47;;
32748;SDS011;19119;52.474;13.710;2023-04-01T10:06:09;7.72;;;3.50;;
32748;SDS011;19119;52.474;13.710;2023-04-01T10:17:17;6.35;;;4.13;;
32748;SDS011;19119;52.474;13.710;2023-04-01T10:25:39;7.18;;;3.90;;
32748;SDS011;19119;52.474;13.710;2023-04-01T10:31:07;7.30;;;3.60;;
32748;SDS011;19119;52.474;13.710;2023-04-01T10:34:15;9.43;;;3.85;;
32748;SDS011;19119;52.474;13.710;2023-04-01T10:45:35;8.38;;;3.85;;
32748;SDS011;19119;52.474;13.710;2023-04-01T11:14:21;3.63;;;2.03;;
32748;SDS011;19119;52.474;13.710;2023-04-01T11:20:09;3.53;;;2.67;;
32748;SDS011;19119;52.474;13.710;2023-04-01T11:25:42;3.53;;;2.10;;
32748;SDS011;19119;52.474;13.710;2023-04-01T11:28:22;4.43;;;1.85;;
32748;SDS011;19119;52.474;13.710;2023-04-01T11:31:16;4.00;;;1.92;;
32748;SDS011;19119;52.474;13.710;2023-04-01T11:34:12;3.92;;;2.45;;
32748;SDS011;19119;52.474;13.710;2023-04-01T11:37:03;4.60;;;2.53;;
32748;SDS011;19119;52.474;13.710;2023-04-01T11:39:36;3.13;;;2.08;;
32748;SDS011;19119;52.474;13.710;2023-04-01T11:44:51;5.78;;;2.55;;
32748;SDS011;19119;52.474;13.710;2023-04-01T11:50:18;4.95;;;3.10;;
32748;SDS011;19119;52.474;13.710;2023-04-01T11:53:20;4.63;;;2.75;;
32748;SDS011;19119;52.474;13.710;2023-04-01T11:58:54;4.57;;;2.20;;
32748;SDS011;19119;52.474;13.710;2023-04-01T12:01:42;4.45;;;2.40;;
32748;SDS011;19119;52.474;13.710;2023-04-01T12:08:00;3.85;;;2.30;;
32748;SDS011;19119;52.474;13.710;2023-04-01T12:10:42;5.05;;;2.63;;
32748;SDS011;19119;52.474;13.710;2023-04-01T12:16:00;5.72;;;2.85;;
32748;SDS011;19119;52.474;13.710;2023-04-01T12:18:40;3.45;;;2.25;;
32748;SDS011;19119;52.474;13.710;2023-04-01T12:21:17;3.97;;;2.72;;
32748;SDS011;19119;52.474;13.710;2023-04-01T12:26:52;3.92;;;2.55;;
32748;SDS011;19119;52.474;13.710;2023-04-01T12:32:40;3.78;;;2.17;;
32748;SDS011;19119;52.474;13.710;2023-04-01T12:35:36;3.92;;;2.55;;
32748;SDS011;19119;52.474;13.710;2023-04-01T12:38:16;4.55;;;2.45;;
32748;SDS011;19119;52.474;13.710;2023-04-01T12:41:09;4.10;;;2.55;;
32748;SDS011;19119;52.474;13.710;2023-04-01T12:49:28;2.83;;;2.03;;
32748;SDS011;19119;52.474;13.710;2023-04-01T13:00:30;4.75;;;2.63;;
32748;SDS011;19119;52.474;13.710;2023-04-01T13:03:22;5.05;;;2.10;;
32748;SDS011;19119;52.474;13.710;2023-04-01T13:14:08;4.47;;;2.28;;
32748;SDS011;19119;52.474;13.710;2023-04-01T13:17:11;5.18;;;3.22;;
32748;SDS011;19119;52.474;13.710;2023-04-01T13:22:57;4.82;;;2.40;;
32748;SDS011;19119;52.474;13.710;2023-04-01T13:25:51;5.10;;;2.25;;
32748;SDS011;19119;52.474;13.710;2023-04-01T13:42:05;3.13;;;1.90;;
32748;SDS011;19119;52.474;13.710;2023-04-01T13:56:24;2.35;;;1.55;;
32748;SDS011;19119;52.474;13.710;2023-04-01T13:59:35;4.45;;;1.88;;
32748;SDS011;19119;52.474;13.710;2023-04-01T14:02:19;3.67;;;1.65;;
32748;SDS011;19119;52.474;13.710;2023-04-01T14:08:04;1.92;;;1.27;;
32748;SDS011;19119;52.474;13.710;2023-04-01T14:13:31;1.45;;;1.13;;
32748;SDS011;19119;52.474;13.710;2023-04-01T14:19:03;2.17;;;1.30;;
32748;SDS011;19119;52.474;13.710;2023-04-01T14:21:57;5.25;;;1.23;;
32748;SDS011;19119;52.474;13.710;2023-04-01T14:33:12;2.00;;;1.30;;
32748;SDS011;19119;52.474;13.710;2023-04-01T14:42:03;2.15;;;1.40;;
32748;SDS011;19119;52.474;13.710;2023-04-01T14:44:51;1.92;;;1.15;;
32748;SDS011;19119;52.474;13.710;2023-04-01T14:53:31;2.50;;;1.52;;
32748;SDS011;19119;52.474;13.710;2023-04-01T14:58:45;2.83;;;1.15;;
32748;SDS011;19119;52.474;13.710;2023-04-01T15:09:13;2.45;;;1.95;;
32748;SDS011;19119;52.474;13.710;2023-04-01T15:30:55;3.63;;;1.52;;
32748;SDS011;19119;52.474;13.710;2023-04-01T15:36:18;4.18;;;1.23;;
32748;SDS011;19119;52.474;13.710;2023-04-01T15:39:09;2.35;;;1.35;;
32748;SDS011;19119;52.474;13.710;2023-04-01T15:50:17;3.05;;;1.30;;
32748;SDS011;19119;52.474;13.710;2023-04-01T16:17:31;2.75;;;1.65;;
32748;SDS011;19119;52.474;13.710;2023-04-01T16:28:13;5.75;;;2.63;;
32748;SDS011;19119;52.474;13.710;2023-04-01T16:36:47;2.15;;;1.50;;
32748;SDS011;19119;52.474;13.710;2023-04-01T16:39:32;3.15;;;2.05;;
32748;SDS011;19119;52.474;13.710;2023-04-01T16:45:00;5.90;;;2.10;;
32748;SDS011;19119;52.474;13.710;2023-04-01T16:47:40;3.78;;;2.08;;
32748;SDS011;19119;52.474;13.710;2023-04-01T16:55:24;6.03;;;3.33;;
32748;SDS011;19119;52.474;13.710;2023-04-01T17:01:13;4.28;;;2.55;;
32748;SDS011;19119;52.474;13.710;2023-04-01T17:03:45;5.50;;;3.80;;
32748;SDS011;19119;52.474;13.710;2023-04-01T17:06:19;4.60;;;2.92;;
32748;SDS011;19119;52.474;13.710;2023-04-01T17:09:24;4.53;;;3.00;;
32748;SDS011;19119;52.474;13.710;2023-04-01T17:12:00;5.05;;;2.92;;
32748;SDS011;19119;52.474;13.710;2023-04-01T17:20:23;4.68;;;3.15;;
32748;SDS011;19119;52.474;13.710;2023-04-01T17:28:10;3.88;;;2.53;;
32748;SDS011;19119;52.474;13.710;2023-04-01T17:33:39;5.05;;;2.38;;
32748;SDS011;19119;52.474;13.710;2023-04-01T17:36:21;6.80;;;4.05;;
32748;SDS011;19119;52.474;13.710;2023-04-01T17:42:09;3.83;;;2.50;;
32748;SDS011;19119;52.474;13.710;2023-04-01T17:52:46;5.05;;;2.67;;
32748;SDS011;19119;52.474;13.710;2023-04-01T17:55:30;5.97;;;2.95;;
32748;SDS011;19119;52.474;13.710;2023-04-01T18:15:11;6.47;;;3.05;;
32748;SDS011;19119;52.474;13.710;2023-04-01T18:26:12;5.13;;;2.67;;
32748;SDS011;19119;52.474;13.710;2023-04-01T18:28:50;6.90;;;2.50;;
32748;SDS011;19119;52.474;13.710;2023-04-01T18:31:23;5.10;;;2.40;;
32748;SDS011;19119;52.474;13.710;2023-04-01T18:45:01;4.63;;;3.22;;
32748;SDS011;19119;52.474;13.710;2023-04-01T18:47:55;11.23;;;3.30;;
32748;SDS011;19119;52.474;13.710;2023-04-01T18:53:34;7.63;;;3.63;;
32748;SDS011;19119;52.474;13.710;2023-04-01T18:56:15;5.03;;;3.10;;
32748;SDS011;19119;52.474;13.710;2023-04-01T19:05:17;5.70;;;3.15;;
32748;SDS011;19119;52.474;13.710;2023-04-01T19:07:54;9.45;;;3.47;;
32748;SDS011;19119;52.474;13.710;2023-04-01T19:10:31;4.32;;;3.17;;
32748;SDS011;19119;52.474;13.710;2023-04-01T19:13:11;4.32;;;3.10;;
32748;SDS011;19119;52.474;13.710;2023-04-01T19:15:58;5.75;;;3.65;;
32748;SDS011;19119;52.474;13.710;2023-04-01T19:21:21;6.53;;;3.90;;
32748;SDS011;19119;52.474;13.710;2023-04-01T19:23:58;9.18;;;3.60;;
32748;SDS011;19119;52.474;13.710;2023-04-01T19:29:35;8.27;;;4.00;;
32748;SDS011;19119;52.474;13.710;2023-04-01T19:32:14;7.75;;;3.88;;
32748;SDS011;19119;52.474;13.710;2023-04-01T19:37:54;6.30;;;3.80;;
32748;SDS011;19119;52.474;13.710;2023-04-01T19:40:59;6.75;;;3.42;;
32748;SDS011;19119;52.474;13.710;2023-04-01T19:43:44;5.90;;;4.15;;
32748;SDS011;19119;52.474;13.710;2023-04-01T19:49:36;10.88;;;5.05;;
32748;SDS011;19119;52.474;13.710;2023-04-01T19:52:20;10.80;;;5.15;;
32748;SDS011;19119;52.474;13.710;2023-04-01T20:00:29;10.95;;;5.53;;
32748;SDS011;19119;52.474;13.710;2023-04-01T20:06:17;14.15;;;5.80;;
32748;SDS011;19119;52.474;13.710;2023-04-01T20:08:56;9.48;;;6.15;;
32748;SDS011;19119;52.474;13.710;2023-04-01T20:11:43;9.95;;;5.30;;
32748;SDS011;19119;52.474;13.710;2023-04-01T20:14:30;10.40;;;5.90;;
32748;SDS011;19119;52.474;13.710;2023-04-01T20:17:17;20.52;;;5.90;;
32748;SDS011;19119;52.474;13.710;2023-04-01T20:20:03;11.98;;;6.35;;
32748;SDS011;19119;52.474;13.710;2023-04-01T20:25:15;9.45;;;4.95;;
32748;SDS011;19119;52.474;13.710;2023-04-01T20:30:30;8.82;;;4.82;;
32748;SDS011;19119;52.474;13.710;2023-04-01T20:45:23;10.98;;;5.00;;
32748;SDS011;19119;52.474;13.710;2023-04-01T20:48:09;9.93;;;4.78;;
32748;SDS011;19119;52.474;13.710;2023-04-01T20:50:48;10.90;;;5.30;;
32748;SDS011;19119;52.474;13.710;2023-04-01T20:53:28;8.57;;;5.90;;
32748;SDS011;19119;52.474;13.710;2023-04-01T20:58:53;4.60;;;2.85;;
32748;SDS011;19119;52.474;13.710;2023-04-01T21:01:33;11.13;;;4.78;;
32748;SDS011;19119;52.474;13.710;2023-04-01T21:04:09;10.25;;;4.97;;
32748;SDS011;19119;52.474;13.710;2023-04-01T21:09:29;7.43;;;3.97;;
32748;SDS011;19119;52.474;13.710;2023-04-01T21:12:14;7.72;;;3.72;;
32748;SDS011;19119;52.474;13.710;2023-04-01T21:15:07;7.93;;;4.28;;
32748;SDS011;19119;52.474;13.710;2023-04-01T21:21:08;9.15;;;4.60;;
32748;SDS011;19119;52.474;13.710;2023-04-01T21:24:23;11.18;;;5.15;;
32748;SDS011;19119;52.474;13.710;2023-04-01T21:29:53;8.48;;;4.47;;
32748;SDS011;19119;52.474;13.710;2023-04-01T21:43:58;6.82;;;2.80;;
32748;SDS011;19119;52.474;13.710;2023-04-01T21:46:56;10.18;;;4.93;;
32748;SDS011;19119;52.474;13.710;2023-04-01T21:55:07;7.28;;;3.75;;
32748;SDS011;19119;52.474;13.710;2023-04-01T22:00:53;9.40;;;4.60;;
32748;SDS011;19119;52.474;13.710;2023-04-01T22:06:37;7.10;;;3.20;;
32748;SDS011;19119;52.474;13.710;2023-04-01T22:12:01;10.73;;;3.58;;
32748;SDS011;19119;52.474;13.710;2023-04-01T22:14:48;6.07;;;3.00;;
32748;SDS011;19119;52.474;13.710;2023-04-01T22:17:32;5.78;;;3.20;;
32748;SDS011;19119;52.474;13.710;2023-04-01T22:20:15;7.05;;;4.15;;
32748;SDS011;19119;52.474;13.710;2023-04-01T22:22:49;5.80;;;3.33;;
32748;SDS011;19119;52.474;13.710;2023-04-01T22:25:33;7.20;;;3.17;;
32748;SDS011;19119;52.474;13.710;2023-04-01T22:30:41;6.75;;;2.97;;
32748;SDS011;19119;52.474;13.710;2023-04-01T22:33:18;5.85;;;2.92;;
32748;SDS011;19119;52.474;13.710;2023-04-01T22:36:19;7.68;;;4.00;;
32748;SDS011;19119;52.474;13.710;2023-04-01T22:39:09;8.10;;;4.25;;
32748;SDS011;19119;52.474;13.710;2023-04-01T22:44:58;5.55;;;3.30;;
32748;SDS011;19119;52.474;13.710;2023-04-01T22:47:43;5.53;;;3.10;;
32748;SDS011;19119;52.474;13.710;2023-04-01T22:50:23;7.28;;;3.90;;
32748;SDS011;19119;52.474;13.710;2023-04-01T22:53:18;5.78;;;3.15;;
32748;SDS011;19119;52.474;13.710;2023-04-01T22:56:15;5.60;;;3.08;;
32748;SDS011;19119;52.474;13.710;2023-04-01T22:58:56;5.57;;;3.03;;
32748;SDS011;19119;52.474;13.710;2023-04-01T23:01:32;6.25;;;3.47;;
32748;SDS011;19119;52.474;13.710;2023-04-01T23:04:03;9.88;;;4.47;;
32748;SDS011;19119;52.474;13.710;2023-04-01T23:06:34;3.38;;;2.28;;
32748;SDS011;19119;52.474;13.710;2023-04-01T23:09:25;5.40;;;3.38;;
32748;SDS011;19119;52.474;13.710;2023-04-01T23:11:55;5.20;;;3.08;;
32748;SDS011;19119;52.474;13.710;2023-04-01T23:14:41;6.18;;;3.30;;
32748;SDS011;19119;52.474;13.710;2023-04-01T23:28:25;6.50;;;3.55;;
32748;SDS011;19119;52.474;13.710;2023-04-01T23:30:58;5.13;;;2.80;;
32748;SDS011;19119;52.474;13.710;2023-04-01T23:33:27;5.10;;;2.38;;
32748;SDS011;19119;52.474;13.710;2023-04-01T23:38:36;4.13;;;1.88;;
32748;SDS011;19119;52.474;13.710;2023-04-01T23:41:06;6.85;;;3.40;;
32748;SDS011;19119;52.474;13.710;2023-04-01T23:43:36;6.28;;;3.53;;
32748;SDS011;19119;52.474;13.710;2023-04-01T23:46:05;6.10;;;2.58;;
32748;SDS011;19119;52.474;13.710;2023-04-01T23:48:36;6.18;;;2.75;;
32748;SDS011;19119;52.474;13.710;2023-04-01T23:51:04;5.97;;;3.37;;
32748;SDS011;19119;52.474;13.710;2023-04-01T23:53:45;8.68;;;3.42;;
32748;SDS011;19119;52.474;13.710;2023-04-01T23:56:17;8.77;;;3.53;;
32748;SDS011;19119;52.474;13.710;2023-04-01T23:58:47;6.07;;;2.70;;
